Oberlin, Louisiana
Current Conditions -  °F | °C
As of 11:55 AM on Wednesday 28 Jan 2015 (Local Time) from KACP Reporting Station
Clear Clear  
Wind Chill: 68°   Ceiling: Unl
Heat Index: 68°   Visibility: 10mi
Dew Point: 40°   Wind: 5mph
Humidity: 36%   Direction: 160°SSE
Pressure: 30.26"   Gusts: NA
Location:  30.62°N, 92.76°W
Report Text: KACP 281755Z AUTO 16004KT 10SM CLR 20/04 A3026 RMK AO2 T01990043 10202 20015
Loading
Personal Weather Stations






























Interactive Weather Map New forecast layout! Learn more

10-Day Weather Forecast

Advertisements
Track Severe Weather on mobile